Terminal Aerodrome Forecast
Issued by NWS

Home | Current Version | Previous Version | Text Only | Print | Product List | Glossary On
Versions: 1 2 3 4 5 6 7 8 9 10 11 12 13 14 15 16 17 18 19 20 21 22 23 24 25 26 27 28
000
FTUS45 KGJT 201144
TAFRIL
TAF
KRIL 201144Z 2012/2112 VRB05KT P6SM BKN080
     FM201900 28010KT P6SM VCTS BKN100CB
     FM202300 21010G18KT P6SM VCTS OVC100CB
     FM210100 13015G24KT P6SM VCTS OVC090CB
     FM210600 08006KT P6SM BKN090
     FM211000 VRB03KT P6SM BKN090=

USA.gov is the U.S. government's official web portal to all federal, state and local government web resources and services.